KOKC

Will Rogers World Airport

Oklahoma City, Oklahoma, USA
METAR KOKC 191338Z 17009KT 1/4SM R35R/1800V2200FT FG VV002 06/06 A2983 RMK AO2 T00610061
Observed Flight Rules
Dec-19 @ 13:38 UTC (15 minutes ago) Instrument Flight Rules
Wind Visibility Clouds Conditions
170° at 9 knots 1/4 miles
  • Vertical visibility at 200' AGL
  • Fog
Temperatures Readings
Current 6°C / 43°F
Dewpoint 6°C / 43°F
Humidity 100%
Altimeter 29.83" Hg
Pressure 1010 hPa
Elevation 390
METAR KOKC 191338Z 17009KT 1/4SM R35R/1800V2200FT FG VV002 06/06 A2983 RMK AO2 T00610061
Observed Flight Rules
Dec-19 @ 13:38 UTC
(15 minutes ago)
LIFR
Wind Visibility
170° at 9 knots 1/4 miles
Clouds
  • Vertical visibility at 200' AGL
Conditions
  • Fog
Temperature Dewpoint
6°C / 43°F 6°C / 43°F
Humidity Altimeter Pressure
100% 29.83" Hg 1010 hPa